createdAt,value
2023-05-17T00:00:36.298Z,100699.25
2023-05-17T00:03:03.419Z,100704.30
2023-05-17T00:05:30.881Z,100703.58
2023-05-17T00:07:57.950Z,100707.04
2023-05-17T00:10:24.995Z,100713.79
2023-05-17T00:12:52.045Z,100709.09
2023-05-17T00:15:19.193Z,100700.56
2023-05-17T00:17:46.335Z,100692.52
2023-05-17T00:20:13.598Z,100693.67
2023-05-17T00:22:41.356Z,100691.85
2023-05-17T00:25:08.507Z,100697.60
2023-05-17T00:27:36.374Z,100700.06
2023-05-17T00:30:03.832Z,100706.40
2023-05-17T00:32:30.854Z,100709.95
2023-05-17T00:34:58.088Z,100715.76
2023-05-17T00:37:25.273Z,100722.09
2023-05-17T00:39:53.344Z,100728.63
2023-05-17T00:42:20.698Z,100740.89
2023-05-17T00:44:47.881Z,100747.25
2023-05-17T00:47:15.162Z,100758.16
2023-05-17T00:49:42.350Z,100751.36
2023-05-17T00:52:09.319Z,100749.63
2023-05-17T00:54:36.562Z,100746.35
2023-05-17T00:57:04.205Z,100752.11
2023-05-17T00:59:33.541Z,100761.32
2023-05-17T01:02:02.120Z,100771.02
2023-05-17T01:04:29.261Z,100780.40
2023-05-17T01:06:56.587Z,100785.61
2023-05-17T01:09:23.743Z,100788.76
2023-05-17T01:12:33.289Z,100781.71
2023-05-17T01:15:17.335Z,100773.81
2023-05-17T01:17:56.951Z,100765.98
2023-05-17T01:20:29.064Z,100762.97
2023-05-17T01:23:31.816Z,100766.87
2023-05-17T01:26:07.158Z,100773.37
2023-05-17T01:28:34.617Z,100774.39
2023-05-17T01:31:02.860Z,100773.15
2023-05-17T01:33:31.210Z,100773.89
2023-05-17T01:35:58.307Z,100778.02
2023-05-17T01:38:25.360Z,100785.42
2023-05-17T01:40:59.060Z,100792.70
2023-05-17T01:43:52.220Z,100800.31
2023-05-17T01:46:40.157Z,100811.80
2023-05-17T01:49:16.722Z,100808.73
2023-05-17T01:51:59.139Z,100808.55
2023-05-17T01:54:31.886Z,100813.91
2023-05-17T01:56:59.467Z,100818.02
2023-05-17T01:59:29.290Z,100815.69
2023-05-17T02:02:04.168Z,100815.51
2023-05-17T02:04:31.387Z,100812.38
2023-05-17T02:07:00.922Z,100819.48
2023-05-17T02:09:28.016Z,100818.27
2023-05-17T02:11:55.065Z,100824.23
2023-05-17T02:14:22.112Z,100820.90
2023-05-17T02:16:49.161Z,100824.51
2023-05-17T02:19:16.101Z,100823.77
2023-05-17T02:21:43.158Z,100828.56
2023-05-17T02:24:10.199Z,100832.46
2023-05-17T02:26:37.349Z,100836.52
2023-05-17T02:29:04.504Z,100836.63
2023-05-17T02:31:31.850Z,100837.13
2023-05-17T02:33:58.902Z,100835.37
2023-05-17T02:36:25.849Z,100833.77
2023-05-17T02:38:52.825Z,100836.82
2023-05-17T02:41:20.040Z,100836.94
2023-05-17T02:43:46.982Z,100838.59
2023-05-17T02:46:14.031Z,100841.29
2023-05-17T02:48:41.183Z,100847.48
2023-05-17T02:51:08.326Z,100848.96
2023-05-17T02:53:35.683Z,100856.19
2023-05-17T02:56:03.789Z,100852.11
2023-05-17T02:58:30.897Z,100858.95
2023-05-17T03:00:58.149Z,100864.92
2023-05-17T03:03:25.702Z,100870.85
2023-05-17T03:05:52.783Z,100872.63
2023-05-17T03:08:19.912Z,100881.86
2023-05-17T03:10:47.796Z,100887.61
2023-05-17T03:13:15.155Z,100893.17
2023-05-17T03:15:42.376Z,100899.09
2023-05-17T03:18:09.815Z,100908.86
2023-05-17T03:20:38.722Z,100909.58
2023-05-17T03:23:06.337Z,100919.64
2023-05-17T03:25:36.905Z,100920.54
2023-05-17T03:28:04.989Z,100926.97
2023-05-17T03:30:32.187Z,100938.42
2023-05-17T03:32:59.489Z,100943.13
2023-05-17T03:35:26.942Z,100950.29
2023-05-17T03:37:55.833Z,100952.90
2023-05-17T03:40:23.385Z,100963.39
2023-05-17T03:42:51.689Z,100969.19
2023-05-17T03:45:19.328Z,100978.27
2023-05-17T03:47:46.648Z,100976.56
2023-05-17T03:50:13.827Z,100980.25
2023-05-17T03:52:42.260Z,100982.41
2023-05-17T03:55:09.881Z,100992.88
2023-05-17T03:57:37.112Z,101000.30
2023-05-17T04:00:11.992Z,101003.88
2023-05-17T04:02:42.295Z,101007.61
2023-05-17T04:05:10.056Z,101007.14
2023-05-17T04:07:37.164Z,101017.32
2023-05-17T04:10:04.644Z,101018.90
2023-05-17T04:12:31.718Z,101013.82
2023-05-17T04:14:59.249Z,101017.84
2023-05-17T04:17:26.322Z,101025.23
2023-05-17T04:19:53.424Z,101039.33
2023-05-17T04:22:21.640Z,101049.20
2023-05-17T04:24:49.784Z,101052.39
2023-05-17T04:27:17.401Z,101055.09
2023-05-17T04:29:44.710Z,101059.23
2023-05-17T04:32:11.673Z,101059.93
2023-05-17T04:34:38.999Z,101067.00
2023-05-17T04:37:06.196Z,101064.68
2023-05-17T04:39:34.435Z,101057.76
2023-05-17T04:42:01.571Z,101067.20
2023-05-17T04:44:28.780Z,101067.55
2023-05-17T04:46:56.175Z,101073.48
2023-05-17T04:49:25.498Z,101070.50
2023-05-17T04:51:52.928Z,101073.35
2023-05-17T04:54:20.394Z,101075.77
2023-05-17T04:56:47.648Z,101086.23
2023-05-17T04:59:20.729Z,101085.38
2023-05-17T05:01:48.386Z,101093.80
2023-05-17T05:04:15.821Z,101096.65
2023-05-17T05:06:43.534Z,101099.83
2023-05-17T05:09:10.969Z,101110.13
2023-05-17T05:11:38.414Z,101109.80
2023-05-17T05:14:05.878Z,101100.14
2023-05-17T05:16:32.819Z,101107.02
2023-05-17T05:19:00.184Z,101109.65
2023-05-17T05:21:27.545Z,101108.70
2023-05-17T05:23:55.186Z,101109.70
2023-05-17T05:26:22.331Z,101115.08
2023-05-17T05:28:49.790Z,101107.33
2023-05-17T05:31:17.069Z,101106.73
2023-05-17T05:33:48.581Z,101108.36
2023-05-17T05:36:16.054Z,101108.02
2023-05-17T05:38:43.096Z,101103.19
2023-05-17T05:41:10.248Z,101101.35
2023-05-17T05:43:38.122Z,101094.36
2023-05-17T05:46:05.775Z,101090.20
2023-05-17T05:48:32.916Z,101083.20
2023-05-17T05:51:00.685Z,101080.96
2023-05-17T05:53:27.841Z,101088.01
2023-05-17T05:55:56.136Z,101073.98
2023-05-17T05:58:23.158Z,101069.00
2023-05-17T06:00:50.521Z,101077.05
2023-05-17T06:03:17.673Z,101039.33
2023-05-17T06:05:44.871Z,101030.85
2023-05-17T06:08:12.265Z,101024.45
2023-05-17T06:10:39.313Z,101028.31
2023-05-17T06:13:06.366Z,100984.70
2023-05-17T06:15:33.438Z,100989.30
2023-05-17T06:18:00.719Z,101005.67
2023-05-17T06:20:28.111Z,101018.61
2023-05-17T06:22:55.364Z,101001.24
2023-05-17T06:25:22.445Z,100972.48
2023-05-17T06:27:49.465Z,100951.86
2023-05-17T06:30:16.511Z,100967.98
2023-05-17T06:32:44.040Z,100954.33
2023-05-17T06:35:11.437Z,100965.65
2023-05-17T06:37:39.077Z,100977.30
2023-05-17T06:40:16.020Z,100966.83
2023-05-17T06:42:44.136Z,100927.77
2023-05-17T06:45:12.492Z,100951.45
2023-05-17T06:47:39.830Z,100944.90
2023-05-17T06:50:08.859Z,100919.23
2023-05-17T06:52:36.916Z,100851.63
2023-05-17T06:55:04.277Z,100882.79
2023-05-17T06:57:33.940Z,100777.36
2023-05-17T07:00:00.901Z,100770.80
2023-05-17T07:02:33.716Z,100871.59
2023-05-17T07:05:02.378Z,100799.70
2023-05-17T07:07:29.639Z,100833.02
2023-05-17T07:09:56.635Z,100742.59
2023-05-17T07:12:23.946Z,100735.41
2023-05-17T07:14:51.029Z,100795.04
2023-05-17T07:17:17.958Z,100783.27
2023-05-17T07:19:45.331Z,100760.33
2023-05-17T07:22:12.848Z,100853.79
2023-05-17T07:24:40.003Z,100856.12
2023-05-17T07:27:07.147Z,100819.02
2023-05-17T07:29:34.194Z,100760.27
2023-05-17T07:32:01.245Z,100745.19
2023-05-17T07:34:28.404Z,100754.44
2023-05-17T07:36:55.552Z,100620.14
2023-05-17T07:40:39.699Z,100571.70
2023-05-17T07:43:07.045Z,100477.05
2023-05-17T07:45:34.012Z,100468.17
2023-05-17T07:48:01.664Z,100345.52
2023-05-17T07:50:29.374Z,100273.71
2023-05-17T07:52:56.641Z,100136.98
2023-05-17T07:55:23.612Z,100033.05
2023-05-17T07:57:50.866Z,99900.04
2023-05-17T08:00:19.443Z,99969.72
2023-05-17T08:02:46.922Z,99748.48
2023-05-17T08:05:14.069Z,99536.36
2023-05-17T08:07:41.308Z,99647.15
2023-05-17T08:10:08.862Z,99671.84
2023-05-17T08:12:36.012Z,99588.29
2023-05-17T08:15:03.362Z,99552.12
2023-05-17T08:17:30.766Z,99431.73
2023-05-17T08:19:57.976Z,99424.43
2023-05-17T08:22:25.423Z,99382.36
2023-05-17T08:24:52.353Z,99284.13
2023-05-17T08:27:19.433Z,99280.95
2023-05-17T08:29:46.773Z,99416.39
2023-05-17T08:32:13.953Z,99441.48
2023-05-17T08:34:41.062Z,99365.81
2023-05-17T08:37:08.461Z,99443.06
2023-05-17T08:39:35.693Z,99557.73
2023-05-17T08:42:02.921Z,99571.45
2023-05-17T08:44:30.077Z,99467.83
2023-05-17T08:46:57.230Z,99479.98
2023-05-17T08:49:26.142Z,99563.42
2023-05-17T08:51:57.153Z,99548.98
2023-05-17T08:54:24.318Z,99486.02
2023-05-17T08:56:52.528Z,99414.56
2023-05-17T08:59:20.158Z,99385.91
2023-05-17T09:01:50.250Z,99307.89
2023-05-17T09:04:17.751Z,99303.34
2023-05-17T09:06:45.069Z,99347.13
2023-05-17T09:09:12.110Z,99383.70
2023-05-17T09:11:39.272Z,99386.51
2023-05-17T09:14:07.152Z,99347.04
2023-05-17T09:16:35.640Z,99374.19
2023-05-17T09:19:03.974Z,99472.21
2023-05-17T09:21:31.966Z,99571.73
2023-05-17T09:24:07.166Z,99485.80
2023-05-17T09:26:39.398Z,99477.63
2023-05-17T09:29:19.027Z,99560.75
2023-05-17T09:31:46.551Z,99515.78
2023-05-17T09:34:13.597Z,99498.50
2023-05-17T09:36:43.673Z,99424.11
2023-05-17T09:39:13.437Z,99337.55
2023-05-17T09:41:42.435Z,99334.67
2023-05-17T09:44:10.085Z,99249.20
2023-05-17T09:46:47.833Z,99195.93
2023-05-17T09:49:16.494Z,99206.41
2023-05-17T09:51:45.259Z,99186.88
2023-05-17T09:54:12.445Z,99210.14
2023-05-17T09:56:39.595Z,99203.75
2023-05-17T09:59:14.214Z,99204.22
2023-05-17T10:01:42.255Z,99219.31
2023-05-17T10:04:10.703Z,99177.95
2023-05-17T10:06:47.542Z,99140.77
2023-05-17T10:09:17.412Z,99111.77
2023-05-17T10:11:46.827Z,99042.89
2023-05-17T10:14:33.969Z,99108.02
2023-05-17T10:17:02.725Z,99182.72
2023-05-17T10:19:29.936Z,99169.99
2023-05-17T10:22:08.360Z,99244.98
2023-05-17T10:24:46.693Z,99220.23
2023-05-17T10:27:13.881Z,99251.27
2023-05-17T10:29:41.819Z,99291.27
2023-05-17T10:32:09.507Z,99256.99
2023-05-17T10:34:38.265Z,99260.45
2023-05-17T10:37:05.532Z,99256.25
2023-05-17T10:39:34.921Z,99256.77
2023-05-17T10:42:13.672Z,99270.66
2023-05-17T10:44:42.251Z,99185.81
2023-05-17T10:47:10.249Z,99301.15
2023-05-17T10:49:38.260Z,99370.42
2023-05-17T10:52:17.774Z,99293.43
2023-05-17T10:54:45.863Z,99175.39
2023-05-17T10:57:50.593Z,99143.77
2023-05-17T11:00:22.017Z,99178.63
2023-05-17T11:02:50.875Z,99299.12
2023-05-17T11:05:27.462Z,99174.30
2023-05-17T11:08:16.165Z,99117.91
2023-05-17T11:11:12.707Z,99106.18
2023-05-17T11:13:55.481Z,99209.75
2023-05-17T11:16:27.775Z,99154.64
2023-05-17T11:19:05.610Z,99093.58
2023-05-17T11:21:33.546Z,99105.14
2023-05-17T11:24:02.270Z,99157.30
2023-05-17T11:26:38.906Z,99160.02
2023-05-17T11:29:12.617Z,99120.39
2023-05-17T11:31:44.152Z,99246.41
2023-05-17T11:34:11.530Z,99184.60
2023-05-17T11:36:58.834Z,99202.20
2023-05-17T11:39:27.212Z,99227.21
2023-05-17T11:41:56.594Z,99173.61
2023-05-17T11:44:31.648Z,99146.97
2023-05-17T11:47:03.606Z,99198.52
2023-05-17T11:49:35.581Z,99173.91
2023-05-17T11:52:05.180Z,99201.45
2023-05-17T11:54:32.546Z,99154.96
2023-05-17T11:57:00.187Z,99169.95
2023-05-17T11:59:27.572Z,99236.80
2023-05-17T12:01:55.205Z,99199.52
2023-05-17T12:04:26.490Z,99201.36
2023-05-17T12:06:54.552Z,99108.89
2023-05-17T12:09:22.899Z,99041.30
2023-05-17T12:11:50.085Z,99041.67
2023-05-17T12:14:22.006Z,99133.05
2023-05-17T12:16:52.507Z,99256.61
2023-05-17T12:19:21.011Z,99274.64
2023-05-17T12:21:48.676Z,99286.14
2023-05-17T12:24:16.307Z,99412.86
2023-05-17T12:26:45.196Z,99320.36
2023-05-17T12:29:13.811Z,99233.92
2023-05-17T12:31:43.520Z,99256.90
2023-05-17T12:34:12.554Z,99261.72
2023-05-17T12:36:39.764Z,99238.05
2023-05-17T12:39:10.012Z,99245.36
2023-05-17T12:41:38.653Z,99310.98
2023-05-17T12:46:39.415Z,99336.08
2023-05-17T12:49:08.533Z,99210.73
2023-05-17T12:51:43.636Z,99060.58
2023-05-17T12:54:29.479Z,99029.09
2023-05-17T12:56:56.808Z,98975.84
2023-05-17T12:59:29.185Z,99062.70
2023-05-17T13:01:57.428Z,99146.35
2023-05-17T13:04:34.692Z,99032.45
2023-05-17T13:07:03.614Z,98928.70
2023-05-17T13:09:32.224Z,98917.48
2023-05-17T13:12:07.398Z,98949.79
2023-05-17T13:14:48.492Z,98956.33
2023-05-17T13:17:15.591Z,98888.47
2023-05-17T13:19:42.867Z,98976.75
2023-05-17T13:22:10.323Z,98919.45
2023-05-17T13:24:38.264Z,98849.16
2023-05-17T13:27:05.998Z,98854.52
2023-05-17T13:29:39.531Z,98770.45
2023-05-17T13:32:08.301Z,98729.66
2023-05-17T13:34:35.877Z,98686.77
2023-05-17T13:37:03.133Z,98710.27
2023-05-17T13:39:30.238Z,98695.38
2023-05-17T13:41:57.388Z,98658.35
2023-05-17T13:44:24.572Z,98685.16
2023-05-17T13:46:51.686Z,98638.58
2023-05-17T13:49:19.192Z,98708.39
2023-05-17T13:51:46.394Z,98678.59
2023-05-17T13:54:13.390Z,98715.98
2023-05-17T13:56:40.648Z,98754.63
2023-05-17T13:59:07.660Z,98695.20
2023-05-17T14:01:34.681Z,98659.60
2023-05-17T14:04:01.986Z,98673.30
2023-05-17T14:06:29.458Z,98671.77
2023-05-17T14:08:57.971Z,98731.02
2023-05-17T14:11:25.125Z,98685.80
2023-05-17T14:13:52.170Z,98716.35
2023-05-17T14:16:19.225Z,98772.23
2023-05-17T14:18:46.711Z,98813.88
2023-05-17T14:21:14.024Z,98852.10
2023-05-17T14:23:41.179Z,98900.34
2023-05-17T14:26:09.404Z,98898.39
2023-05-17T14:28:38.420Z,98929.29
2023-05-17T14:31:06.919Z,98933.65
2023-05-17T14:33:34.344Z,98889.83
2023-05-17T14:36:01.619Z,98827.06
2023-05-17T14:38:28.519Z,98839.54
2023-05-17T14:40:56.128Z,98870.17
2023-05-17T14:43:23.889Z,98825.81
2023-05-17T14:45:51.141Z,98789.45
2023-05-17T14:48:18.225Z,98742.15
2023-05-17T14:50:45.437Z,98703.89
2023-05-17T14:53:13.234Z,98685.17
2023-05-17T14:55:40.658Z,98662.97
2023-05-17T14:58:07.912Z,98717.52
2023-05-17T15:00:35.152Z,98734.44
2023-05-17T15:03:02.294Z,98732.73
2023-05-17T15:05:29.889Z,98748.02
2023-05-17T15:07:57.934Z,98813.35
2023-05-17T15:10:24.981Z,98858.27
2023-05-17T15:12:52.649Z,98857.29
2023-05-17T15:15:22.247Z,98859.45
2023-05-17T15:17:49.848Z,98879.04
2023-05-17T15:20:18.975Z,98896.33
2023-05-17T15:22:46.563Z,98914.63
2023-05-17T15:25:13.532Z,98945.64
2023-05-17T15:27:41.012Z,98993.46
2023-05-17T15:30:10.351Z,99064.60
2023-05-17T15:32:39.606Z,99142.60
2023-05-17T15:35:07.821Z,99193.71
2023-05-17T15:37:35.927Z,99214.66
2023-05-17T15:40:10.003Z,99254.52
2023-05-17T15:42:37.716Z,99294.33
2023-05-17T15:45:05.827Z,99325.80
2023-05-17T15:50:04.362Z,99481.11
2023-05-17T15:52:31.503Z,99538.19
2023-05-17T15:54:58.656Z,99540.40
2023-05-17T15:57:25.746Z,99549.13
2023-05-17T15:59:53.049Z,99575.70
2023-05-17T16:02:20.028Z,99619.52
2023-05-17T16:04:47.141Z,99695.09
2023-05-17T16:07:14.190Z,99705.05
2023-05-17T16:09:41.337Z,99777.56
2023-05-17T16:12:08.517Z,99812.20
2023-05-17T16:14:36.249Z,99839.13
2023-05-17T16:17:06.167Z,99813.58
2023-05-17T16:19:34.545Z,99793.52
2023-05-17T16:22:02.035Z,99792.14
2023-05-17T16:24:29.146Z,99818.33
2023-05-17T16:26:56.194Z,99849.68
2023-05-17T16:29:23.239Z,99848.98
2023-05-17T16:31:51.616Z,99883.98
2023-05-17T16:34:18.734Z,99910.72
2023-05-17T16:36:47.941Z,99959.81
2023-05-17T16:39:14.934Z,99975.36
2023-05-17T16:41:42.054Z,99972.79
2023-05-17T16:44:09.225Z,99999.70
2023-05-17T16:46:37.990Z,100043.24
2023-05-17T16:49:05.247Z,100087.23
2023-05-17T16:51:32.161Z,100121.36
2023-05-17T16:53:59.234Z,100126.08
2023-05-17T16:56:26.906Z,100161.95
2023-05-17T16:58:53.941Z,100159.49
2023-05-17T17:01:21.457Z,100183.02
2023-05-17T17:03:48.790Z,100193.67
2023-05-17T17:06:16.042Z,100219.95
2023-05-17T17:08:43.153Z,100266.48
2023-05-17T17:11:10.295Z,100288.30
2023-05-17T17:13:37.345Z,100328.20
2023-05-17T17:16:06.140Z,100363.00
2023-05-17T17:18:33.208Z,100391.17
2023-05-17T17:21:00.254Z,100431.89
2023-05-17T17:23:27.683Z,100450.48
2023-05-17T17:25:54.826Z,100475.10
2023-05-17T17:28:22.287Z,100513.19
2023-05-17T17:30:49.441Z,100541.58
2023-05-17T17:33:16.510Z,100575.13
2023-05-17T17:35:43.805Z,100609.48
2023-05-17T17:38:11.291Z,100649.04
2023-05-17T17:40:38.339Z,100685.43
2023-05-17T17:43:05.405Z,100707.27
2023-05-17T17:45:32.441Z,100749.17
2023-05-17T17:47:59.934Z,100794.25
2023-05-17T17:50:27.188Z,100820.30
2023-05-17T17:52:54.553Z,100858.11
2023-05-17T17:55:21.845Z,100890.28
2023-05-17T17:57:48.891Z,100930.48
2023-05-17T18:00:16.673Z,100982.19
2023-05-17T18:02:44.150Z,101016.73
2023-05-17T18:05:11.671Z,101046.99
2023-05-17T18:07:39.606Z,101097.10
2023-05-17T18:10:07.232Z,101140.71
2023-05-17T18:12:34.757Z,101162.79
2023-05-17T18:15:01.903Z,101175.98
2023-05-17T18:17:28.941Z,101205.21
2023-05-17T18:19:56.203Z,101231.20
2023-05-17T18:22:23.249Z,101249.27
2023-05-17T18:24:52.789Z,101274.71
2023-05-17T18:27:20.312Z,101308.07
2023-05-17T18:29:47.269Z,101346.31
2023-05-17T18:32:14.309Z,101398.27
2023-05-17T18:34:41.450Z,101412.68
2023-05-17T18:37:08.626Z,101427.77
2023-05-17T18:39:35.761Z,101466.64
2023-05-17T18:42:02.832Z,101504.48
2023-05-17T18:44:29.945Z,101547.70
2023-05-17T18:46:57.279Z,101590.14
2023-05-17T18:49:26.696Z,101614.31
2023-05-17T18:51:53.757Z,101648.59
2023-05-17T18:54:21.095Z,101660.84
2023-05-17T18:56:48.143Z,101669.36
2023-05-17T18:59:15.496Z,101669.55
2023-05-17T19:01:44.018Z,101679.79
2023-05-17T19:04:11.163Z,101691.13
2023-05-17T19:06:41.493Z,101698.52
2023-05-17T19:09:08.916Z,101711.52
2023-05-17T19:11:36.261Z,101729.39
2023-05-17T19:14:03.616Z,101740.17
2023-05-17T19:16:31.069Z,101758.22
2023-05-17T19:18:58.043Z,101777.08
2023-05-17T19:21:25.061Z,101789.64
2023-05-17T19:23:52.222Z,101803.05
2023-05-17T19:26:19.148Z,101812.15
2023-05-17T19:28:46.246Z,101818.08
2023-05-17T19:31:13.480Z,101823.46
2023-05-17T19:33:40.840Z,101803.66
2023-05-17T19:36:07.956Z,101781.55
2023-05-17T19:38:35.114Z,101734.45
2023-05-17T19:41:02.776Z,101663.36
2023-05-17T19:43:29.921Z,101578.53
2023-05-17T19:45:56.999Z,101485.60
2023-05-17T19:48:24.470Z,101388.54
2023-05-17T19:50:51.771Z,101302.36
2023-05-17T19:53:18.673Z,101237.37
2023-05-17T19:58:46.458Z,101126.16
2023-05-17T20:01:13.423Z,101092.28
2023-05-17T20:03:41.145Z,101070.86
2023-05-17T20:06:11.435Z,101058.46
2023-05-17T20:08:38.402Z,101040.85
2023-05-17T20:11:06.349Z,101022.20
2023-05-17T20:13:34.516Z,101002.92
2023-05-17T20:16:01.575Z,100987.30
2023-05-17T20:18:30.270Z,100966.81
2023-05-17T20:20:57.592Z,100947.92
2023-05-17T20:23:24.578Z,100937.71
2023-05-17T20:25:51.688Z,100932.73
2023-05-17T20:28:19.145Z,100917.52
2023-05-17T20:30:46.601Z,100897.11
2023-05-17T20:33:13.899Z,100876.89
2023-05-17T20:35:41.068Z,100856.16
2023-05-17T20:38:08.151Z,100835.89
2023-05-17T20:40:35.843Z,100814.05
2023-05-17T20:43:04.501Z,100796.56
2023-05-17T20:45:32.368Z,100784.64
2023-05-17T20:47:59.625Z,100775.64
2023-05-17T20:50:26.965Z,100768.89
2023-05-17T20:52:54.427Z,100764.95
2023-05-17T20:55:21.594Z,100759.38
2023-05-17T20:57:48.926Z,100753.34
2023-05-17T21:00:18.334Z,100754.35
2023-05-17T21:02:45.959Z,100756.55
2023-05-17T21:05:14.080Z,100751.53
2023-05-17T21:07:41.367Z,100748.70
2023-05-17T21:10:09.280Z,100746.60
2023-05-17T21:12:36.534Z,100745.89
2023-05-17T21:15:16.423Z,100738.23
2023-05-17T21:17:45.809Z,100734.92
2023-05-17T21:20:13.692Z,100734.17
2023-05-17T21:22:41.310Z,100732.58
2023-05-17T21:25:08.971Z,100739.77
2023-05-17T21:27:36.163Z,100736.94
2023-05-17T21:30:03.466Z,100743.73
2023-05-17T21:32:30.550Z,100741.89
2023-05-17T21:34:59.728Z,100741.11
2023-05-17T21:37:26.810Z,100740.52
2023-05-17T21:39:53.919Z,100741.08
2023-05-17T21:42:21.592Z,100745.26
2023-05-17T21:44:48.613Z,100753.23
2023-05-17T21:47:15.663Z,100757.27
2023-05-17T21:49:42.825Z,100760.77
2023-05-17T21:52:09.869Z,100760.34
2023-05-17T21:54:37.008Z,100761.48
2023-05-17T21:57:04.179Z,100762.09
2023-05-17T21:59:31.205Z,100784.08
2023-05-17T22:01:58.244Z,100818.13
2023-05-17T22:04:25.294Z,100863.75
2023-05-17T22:06:52.443Z,100924.54
2023-05-17T22:09:19.823Z,100981.52
2023-05-17T22:11:47.004Z,101034.38
2023-05-17T22:14:14.196Z,101087.92
2023-05-17T22:16:41.246Z,101124.02
2023-05-17T22:19:08.328Z,101148.56
2023-05-17T22:21:35.435Z,101171.20
2023-05-17T22:24:02.484Z,101194.18
2023-05-17T22:26:29.534Z,101209.72
2023-05-17T22:28:56.886Z,101215.62
2023-05-17T22:31:23.978Z,101228.06
2023-05-17T22:33:54.021Z,101235.88
2023-05-17T22:36:22.327Z,101245.56
2023-05-17T22:38:49.301Z,101251.10
2023-05-17T22:41:16.622Z,101255.10
2023-05-17T22:43:43.672Z,101258.23
2023-05-17T22:46:10.718Z,101266.53
2023-05-17T22:48:37.696Z,101271.04
2023-05-17T22:51:05.321Z,101277.27
2023-05-17T22:53:32.388Z,101281.61
2023-05-17T22:55:59.519Z,101282.30
2023-05-17T22:58:26.667Z,101284.90
2023-05-17T23:00:53.748Z,101289.57
2023-05-17T23:03:21.187Z,101297.19
2023-05-17T23:05:48.623Z,101309.95
2023-05-17T23:08:15.982Z,101317.20
2023-05-17T23:10:46.165Z,101320.14
2023-05-17T23:13:14.073Z,101326.54
2023-05-17T23:15:46.922Z,101328.80
2023-05-17T23:18:14.306Z,101333.97
2023-05-17T23:20:42.376Z,101334.14
2023-05-17T23:23:09.420Z,101339.49
2023-05-17T23:25:37.592Z,101343.30
2023-05-17T23:28:04.952Z,101349.17
2023-05-17T23:30:32.634Z,101347.10
2023-05-17T23:33:00.328Z,101351.75
2023-05-17T23:35:27.751Z,101348.83
2023-05-17T23:37:55.085Z,101349.52
2023-05-17T23:40:22.229Z,101348.48
2023-05-17T23:42:49.377Z,101345.04
2023-05-17T23:45:16.354Z,101345.03
2023-05-17T23:47:44.721Z,101339.33
2023-05-17T23:50:12.322Z,101338.31
2023-05-17T23:52:41.210Z,101338.30
2023-05-17T23:55:09.244Z,101336.94
2023-05-17T23:57:36.262Z,101331.27
